sensor_id;sensor_type;location;lat;lon;timestamp;pressure;altitude;pressure_sealevel;temperature;humidity
69200;BME280;56313;49.804;9.952;2022-07-05T00:02:23;99555.16;;;17.47;49.95
69200;BME280;56313;49.804;9.952;2022-07-05T00:04:49;99555.50;;;17.44;49.65
69200;BME280;56313;49.804;9.952;2022-07-05T00:07:16;99550.22;;;17.44;49.75
69200;BME280;56313;49.804;9.952;2022-07-05T00:09:47;99546.38;;;17.46;49.58
69200;BME280;56313;49.804;9.952;2022-07-05T00:12:13;99546.75;;;17.43;50.58
69200;BME280;56313;49.804;9.952;2022-07-05T00:14:39;99551.69;;;17.31;49.94
69200;BME280;56313;49.804;9.952;2022-07-05T00:17:05;99544.94;;;17.44;50.19
69200;BME280;56313;49.804;9.952;2022-07-05T00:19:31;99546.44;;;17.16;50.32
69200;BME280;56313;49.804;9.952;2022-07-05T00:21:57;99549.06;;;17.16;50.99
69200;BME280;56313;49.804;9.952;2022-07-05T00:24:23;99546.25;;;17.18;50.77
69200;BME280;56313;49.804;9.952;2022-07-05T00:26:49;99544.94;;;16.99;50.55
69200;BME280;56313;49.804;9.952;2022-07-05T00:29:14;99544.03;;;17.06;50.64
69200;BME280;56313;49.804;9.952;2022-07-05T00:31:40;99550.25;;;17.14;50.94
69200;BME280;56313;49.804;9.952;2022-07-05T00:34:05;99554.41;;;16.93;51.52
69200;BME280;56313;49.804;9.952;2022-07-05T00:36:31;99553.16;;;17.04;51.35
69200;BME280;56313;49.804;9.952;2022-07-05T00:38:56;99554.97;;;16.88;52.01
69200;BME280;56313;49.804;9.952;2022-07-05T00:41:22;99547.97;;;16.95;51.58
69200;BME280;56313;49.804;9.952;2022-07-05T00:43:54;99554.78;;;16.90;51.93
69200;BME280;56313;49.804;9.952;2022-07-05T00:46:20;99562.91;;;17.03;51.21
69200;BME280;56313;49.804;9.952;2022-07-05T00:48:46;99560.00;;;16.98;51.61
69200;BME280;56313;49.804;9.952;2022-07-05T00:51:11;99563.03;;;17.10;51.47
69200;BME280;56313;49.804;9.952;2022-07-05T00:53:37;99570.47;;;16.91;51.89
69200;BME280;56313;49.804;9.952;2022-07-05T00:56:04;99566.69;;;16.70;52.47
69200;BME280;56313;49.804;9.952;2022-07-05T00:58:29;99567.94;;;16.44;53.12
69200;BME280;56313;49.804;9.952;2022-07-05T01:00:57;99568.75;;;16.45;52.47
69200;BME280;56313;49.804;9.952;2022-07-05T01:03:22;99563.84;;;16.42;52.97
69200;BME280;56313;49.804;9.952;2022-07-05T01:05:48;99561.63;;;16.45;52.94
69200;BME280;56313;49.804;9.952;2022-07-05T01:08:15;99569.91;;;16.66;52.67
69200;BME280;56313;49.804;9.952;2022-07-05T01:10:41;99568.81;;;16.75;52.79
69200;BME280;56313;49.804;9.952;2022-07-05T01:13:07;99565.16;;;16.61;52.56
69200;BME280;56313;49.804;9.952;2022-07-05T01:15:33;99572.00;;;16.70;52.60
69200;BME280;56313;49.804;9.952;2022-07-05T01:17:59;99568.53;;;16.70;52.20
69200;BME280;56313;49.804;9.952;2022-07-05T01:20:25;99567.16;;;16.59;52.61
69200;BME280;56313;49.804;9.952;2022-07-05T01:22:55;99564.75;;;16.49;52.51
69200;BME280;56313;49.804;9.952;2022-07-05T01:25:23;99562.94;;;16.26;53.47
69200;BME280;56313;49.804;9.952;2022-07-05T01:27:50;99560.06;;;16.13;53.99
69200;BME280;56313;49.804;9.952;2022-07-05T01:30:16;99557.72;;;15.94;54.71
69200;BME280;56313;49.804;9.952;2022-07-05T01:32:42;99555.22;;;16.01;55.21
69200;BME280;56313;49.804;9.952;2022-07-05T01:35:11;99558.19;;;16.21;55.22
69200;BME280;56313;49.804;9.952;2022-07-05T01:37:38;99560.44;;;16.33;55.14
69200;BME280;56313;49.804;9.952;2022-07-05T01:40:04;99555.25;;;16.40;54.94
69200;BME280;56313;49.804;9.952;2022-07-05T01:42:30;99554.97;;;16.34;55.16
69200;BME280;56313;49.804;9.952;2022-07-05T01:44:56;99559.31;;;16.27;55.47
69200;BME280;56313;49.804;9.952;2022-07-05T01:47:23;99559.19;;;16.20;55.69
69200;BME280;56313;49.804;9.952;2022-07-05T01:49:51;99549.78;;;15.94;56.36
69200;BME280;56313;49.804;9.952;2022-07-05T01:52:22;99552.13;;;15.89;56.46
69200;BME280;56313;49.804;9.952;2022-07-05T01:54:48;99558.09;;;15.83;55.66
69200;BME280;56313;49.804;9.952;2022-07-05T01:57:14;99566.50;;;15.87;56.00
69200;BME280;56313;49.804;9.952;2022-07-05T01:59:39;99557.75;;;15.86;56.30
69200;BME280;56313;49.804;9.952;2022-07-05T02:02:07;99556.44;;;15.82;56.31
69200;BME280;56313;49.804;9.952;2022-07-05T02:04:36;99556.34;;;15.75;56.45
69200;BME280;56313;49.804;9.952;2022-07-05T02:07:05;99554.47;;;15.84;56.20
69200;BME280;56313;49.804;9.952;2022-07-05T02:09:31;99556.94;;;15.86;56.28
69200;BME280;56313;49.804;9.952;2022-07-05T02:11:56;99551.84;;;15.76;56.49
69200;BME280;56313;49.804;9.952;2022-07-05T02:14:22;99565.75;;;15.69;56.58
69200;BME280;56313;49.804;9.952;2022-07-05T02:16:47;99561.91;;;15.80;56.48
69200;BME280;56313;49.804;9.952;2022-07-05T02:19:13;99570.22;;;15.69;56.72
69200;BME280;56313;49.804;9.952;2022-07-05T02:21:39;99565.69;;;15.54;57.55
69200;BME280;56313;49.804;9.952;2022-07-05T02:24:05;99559.97;;;15.34;58.10
69200;BME280;56313;49.804;9.952;2022-07-05T02:26:31;99555.41;;;15.19;58.40
69200;BME280;56313;49.804;9.952;2022-07-05T02:28:56;99559.78;;;15.04;58.96
69200;BME280;56313;49.804;9.952;2022-07-05T02:31:22;99562.00;;;15.24;58.95
69200;BME280;56313;49.804;9.952;2022-07-05T02:33:47;99557.44;;;15.17;58.76
69200;BME280;56313;49.804;9.952;2022-07-05T02:36:13;99563.00;;;15.23;58.87
69200;BME280;56313;49.804;9.952;2022-07-05T02:38:39;99567.81;;;15.11;59.26
69200;BME280;56313;49.804;9.952;2022-07-05T02:41:10;99565.00;;;15.12;59.32
69200;BME280;56313;49.804;9.952;2022-07-05T02:43:37;99569.25;;;15.30;58.90
69200;BME280;56313;49.804;9.952;2022-07-05T02:46:04;99570.03;;;15.39;58.24
69200;BME280;56313;49.804;9.952;2022-07-05T02:48:30;99572.03;;;15.37;58.18
69200;BME280;56313;49.804;9.952;2022-07-05T02:50:56;99576.06;;;15.16;58.67
69200;BME280;56313;49.804;9.952;2022-07-05T02:53:21;99576.38;;;15.21;58.33
69200;BME280;56313;49.804;9.952;2022-07-05T02:55:46;99572.47;;;15.09;59.33
69200;BME280;56313;49.804;9.952;2022-07-05T02:58:12;99573.63;;;14.98;59.44
69200;BME280;56313;49.804;9.952;2022-07-05T03:00:37;99575.63;;;14.87;59.77
69200;BME280;56313;49.804;9.952;2022-07-05T03:03:03;99576.56;;;15.03;59.04
69200;BME280;56313;49.804;9.952;2022-07-05T03:05:28;99571.09;;;15.21;59.06
69200;BME280;56313;49.804;9.952;2022-07-05T03:07:54;99580.63;;;15.22;58.76
69200;BME280;56313;49.804;9.952;2022-07-05T03:10:19;99586.25;;;15.27;58.70
69200;BME280;56313;49.804;9.952;2022-07-05T03:12:45;99587.88;;;15.28;58.54
69200;BME280;56313;49.804;9.952;2022-07-05T03:15:10;99590.06;;;15.16;58.50
69200;BME280;56313;49.804;9.952;2022-07-05T03:17:36;99583.31;;;15.14;58.96
69200;BME280;56313;49.804;9.952;2022-07-05T03:20:01;99589.94;;;15.10;58.72
69200;BME280;56313;49.804;9.952;2022-07-05T03:22:27;99585.34;;;14.95;58.89
69200;BME280;56313;49.804;9.952;2022-07-05T03:24:52;99589.44;;;14.98;59.68
69200;BME280;56313;49.804;9.952;2022-07-05T03:27:17;99597.53;;;14.96;59.59
69200;BME280;56313;49.804;9.952;2022-07-05T03:29:43;99598.00;;;15.08;59.19
69200;BME280;56313;49.804;9.952;2022-07-05T03:32:08;99597.34;;;15.14;59.05
69200;BME280;56313;49.804;9.952;2022-07-05T03:34:33;99598.19;;;14.90;59.98
69200;BME280;56313;49.804;9.952;2022-07-05T03:36:59;99598.66;;;14.68;60.71
69200;BME280;56313;49.804;9.952;2022-07-05T03:39:24;99593.91;;;14.80;60.39
69200;BME280;56313;49.804;9.952;2022-07-05T03:41:50;99604.13;;;14.92;60.25
69200;BME280;56313;49.804;9.952;2022-07-05T03:44:15;99600.66;;;14.91;60.40
69200;BME280;56313;49.804;9.952;2022-07-05T03:46:40;99604.13;;;15.00;60.16
69200;BME280;56313;49.804;9.952;2022-07-05T03:49:06;99606.88;;;15.15;59.92
69200;BME280;56313;49.804;9.952;2022-07-05T03:51:31;99603.25;;;15.25;59.64
69200;BME280;56313;49.804;9.952;2022-07-05T03:53:56;99605.72;;;15.26;59.58
69200;BME280;56313;49.804;9.952;2022-07-05T03:56:22;99612.84;;;15.17;59.89
69200;BME280;56313;49.804;9.952;2022-07-05T03:58:51;99609.22;;;15.02;60.42
69200;BME280;56313;49.804;9.952;2022-07-05T04:01:17;99613.66;;;15.10;60.24
69200;BME280;56313;49.804;9.952;2022-07-05T04:03:42;99611.84;;;15.10;60.35
69200;BME280;56313;49.804;9.952;2022-07-05T04:06:09;99613.50;;;15.11;60.15
69200;BME280;56313;49.804;9.952;2022-07-05T04:08:34;99617.59;;;15.14;59.92
69200;BME280;56313;49.804;9.952;2022-07-05T04:11:00;99617.63;;;15.05;60.17
69200;BME280;56313;49.804;9.952;2022-07-05T04:13:25;99618.25;;;15.24;59.61
69200;BME280;56313;49.804;9.952;2022-07-05T04:15:51;99622.81;;;15.47;59.67
69200;BME280;56313;49.804;9.952;2022-07-05T04:18:18;99625.94;;;15.42;59.36
69200;BME280;56313;49.804;9.952;2022-07-05T04:20:43;99634.50;;;15.44;59.39
69200;BME280;56313;49.804;9.952;2022-07-05T04:23:08;99630.94;;;15.29;59.52
69200;BME280;56313;49.804;9.952;2022-07-05T04:25:34;99625.81;;;15.27;60.02
69200;BME280;56313;49.804;9.952;2022-07-05T04:27:59;99624.66;;;15.38;59.73
69200;BME280;56313;49.804;9.952;2022-07-05T04:30:25;99622.81;;;15.47;59.17
69200;BME280;56313;49.804;9.952;2022-07-05T04:32:51;99627.47;;;15.37;60.22
69200;BME280;56313;49.804;9.952;2022-07-05T04:35:16;99635.50;;;15.43;59.91
69200;BME280;56313;49.804;9.952;2022-07-05T04:37:42;99633.88;;;15.42;59.71
69200;BME280;56313;49.804;9.952;2022-07-05T04:40:10;99634.22;;;15.39;59.62
69200;BME280;56313;49.804;9.952;2022-07-05T04:42:36;99639.31;;;15.41;59.54
69200;BME280;56313;49.804;9.952;2022-07-05T04:45:11;99642.63;;;15.35;59.21
69200;BME280;56313;49.804;9.952;2022-07-05T04:47:36;99646.41;;;15.40;59.54
69200;BME280;56313;49.804;9.952;2022-07-05T04:50:04;99650.16;;;15.54;59.37
69200;BME280;56313;49.804;9.952;2022-07-05T04:52:29;99644.16;;;15.69;59.15
69200;BME280;56313;49.804;9.952;2022-07-05T04:54:55;99642.25;;;15.86;58.70
69200;BME280;56313;49.804;9.952;2022-07-05T04:57:20;99649.38;;;15.86;58.78
69200;BME280;56313;49.804;9.952;2022-07-05T04:59:45;99650.53;;;15.83;58.97
69200;BME280;56313;49.804;9.952;2022-07-05T05:02:11;99648.03;;;15.90;58.00
69200;BME280;56313;49.804;9.952;2022-07-05T05:04:36;99651.78;;;16.04;57.96
69200;BME280;56313;49.804;9.952;2022-07-05T05:07:02;99651.88;;;16.19;57.85
69200;BME280;56313;49.804;9.952;2022-07-05T05:09:27;99656.56;;;16.32;57.83
69200;BME280;56313;49.804;9.952;2022-07-05T05:11:57;99654.66;;;16.26;58.11
69200;BME280;56313;49.804;9.952;2022-07-05T05:14:23;99655.63;;;16.25;58.29
69200;BME280;56313;49.804;9.952;2022-07-05T05:16:48;99652.94;;;16.33;57.64
69200;BME280;56313;49.804;9.952;2022-07-05T05:19:14;99654.34;;;16.44;57.67
69200;BME280;56313;49.804;9.952;2022-07-05T05:21:39;99649.16;;;16.74;56.52
69200;BME280;56313;49.804;9.952;2022-07-05T05:24:05;99658.72;;;16.99;55.97
69200;BME280;56313;49.804;9.952;2022-07-05T05:26:31;99662.41;;;17.13;55.30
69200;BME280;56313;49.804;9.952;2022-07-05T05:28:56;99660.25;;;16.93;55.32
69200;BME280;56313;49.804;9.952;2022-07-05T05:31:21;99655.19;;;20.53;63.92
69200;BME280;56313;49.804;9.952;2022-07-05T05:33:47;99652.56;;;21.67;50.36
69200;BME280;56313;49.804;9.952;2022-07-05T05:36:13;99653.13;;;20.48;47.23
69200;BME280;56313;49.804;9.952;2022-07-05T05:38:38;99654.31;;;20.25;57.45
69200;BME280;56313;49.804;9.952;2022-07-05T05:41:04;99654.31;;;20.25;47.16
69200;BME280;56313;49.804;9.952;2022-07-05T05:43:29;99654.94;;;20.34;46.92
69200;BME280;56313;49.804;9.952;2022-07-05T05:45:58;99659.41;;;19.65;47.88
69200;BME280;56313;49.804;9.952;2022-07-05T05:48:23;99662.81;;;19.94;47.80
69200;BME280;56313;49.804;9.952;2022-07-05T05:50:50;99652.28;;;20.21;47.98
69200;BME280;56313;49.804;9.952;2022-07-05T05:53:16;99653.16;;;20.75;50.25
69200;BME280;56313;49.804;9.952;2022-07-05T05:55:42;99652.72;;;20.72;46.22
69200;BME280;56313;49.804;9.952;2022-07-05T05:58:15;99643.53;;;20.81;45.71
69200;BME280;56313;49.804;9.952;2022-07-05T06:00:42;99659.50;;;20.81;45.40
69200;BME280;56313;49.804;9.952;2022-07-05T06:03:08;99648.44;;;20.50;45.71
69200;BME280;56313;49.804;9.952;2022-07-05T06:05:37;99653.75;;;20.71;45.60
69200;BME280;56313;49.804;9.952;2022-07-05T06:08:02;99658.03;;;20.38;46.11
69200;BME280;56313;49.804;9.952;2022-07-05T06:10:33;99654.94;;;20.28;46.47
69200;BME280;56313;49.804;9.952;2022-07-05T06:13:02;99657.81;;;20.19;46.72
69200;BME280;56313;49.804;9.952;2022-07-05T06:15:28;99654.97;;;20.48;46.31
69200;BME280;56313;49.804;9.952;2022-07-05T06:17:54;99661.53;;;20.79;45.34
69200;BME280;56313;49.804;9.952;2022-07-05T06:20:24;99660.50;;;21.27;44.95
69200;BME280;56313;49.804;9.952;2022-07-05T06:22:50;99666.22;;;21.31;47.97
69200;BME280;56313;49.804;9.952;2022-07-05T06:25:16;99665.41;;;21.31;54.84
69200;BME280;56313;49.804;9.952;2022-07-05T06:27:45;99668.47;;;21.41;45.12
69200;BME280;56313;49.804;9.952;2022-07-05T06:30:14;99668.03;;;21.51;44.40
69200;BME280;56313;49.804;9.952;2022-07-05T06:32:40;99671.38;;;21.12;46.07
69200;BME280;56313;49.804;9.952;2022-07-05T06:35:05;99671.31;;;21.46;54.88
69200;BME280;56313;49.804;9.952;2022-07-05T06:40:21;99666.69;;;21.74;49.87
69200;BME280;56313;49.804;9.952;2022-07-05T06:42:47;99674.31;;;21.70;55.12
69200;BME280;56313;49.804;9.952;2022-07-05T06:45:12;99669.91;;;21.23;59.50
69200;BME280;56313;49.804;9.952;2022-07-05T06:47:38;99663.28;;;21.53;56.51
69200;BME280;56313;49.804;9.952;2022-07-05T06:50:04;99676.97;;;21.70;56.29
69200;BME280;56313;49.804;9.952;2022-07-05T06:52:33;99669.06;;;21.43;57.86
69200;BME280;56313;49.804;9.952;2022-07-05T06:55:04;99670.84;;;21.63;52.67
69200;BME280;56313;49.804;9.952;2022-07-05T06:57:37;99671.03;;;21.68;47.19
69200;BME280;56313;49.804;9.952;2022-07-05T07:00:04;99677.06;;;22.02;44.54
69200;BME280;56313;49.804;9.952;2022-07-05T07:02:29;99671.16;;;22.33;47.80
69200;BME280;56313;49.804;9.952;2022-07-05T07:04:57;99673.00;;;22.32;45.61
69200;BME280;56313;49.804;9.952;2022-07-05T07:07:22;99662.09;;;22.40;42.55
69200;BME280;56313;49.804;9.952;2022-07-05T07:10:06;99667.78;;;22.44;41.24
69200;BME280;56313;49.804;9.952;2022-07-05T07:12:32;99670.59;;;22.63;41.86
69200;BME280;56313;49.804;9.952;2022-07-05T07:14:57;99669.81;;;22.81;41.08
69200;BME280;56313;49.804;9.952;2022-07-05T07:17:24;99675.53;;;22.59;40.17
69200;BME280;56313;49.804;9.952;2022-07-05T07:19:49;99672.56;;;22.35;40.54
69200;BME280;56313;49.804;9.952;2022-07-05T07:22:14;99670.25;;;22.78;47.35
69200;BME280;56313;49.804;9.952;2022-07-05T07:24:40;99673.06;;;22.58;46.12
69200;BME280;56313;49.804;9.952;2022-07-05T07:27:05;99672.00;;;22.65;39.41
69200;BME280;56313;49.804;9.952;2022-07-05T07:29:34;99676.63;;;23.02;39.48
69200;BME280;56313;49.804;9.952;2022-07-05T07:32:00;99678.34;;;22.90;40.53
69200;BME280;56313;49.804;9.952;2022-07-05T07:34:27;99681.56;;;22.73;47.29
69200;BME280;56313;49.804;9.952;2022-07-05T07:36:54;99678.34;;;22.32;41.43
69200;BME280;56313;49.804;9.952;2022-07-05T07:39:20;99674.16;;;21.58;57.47
69200;BME280;56313;49.804;9.952;2022-07-05T07:41:46;99669.63;;;22.11;42.24
69200;BME280;56313;49.804;9.952;2022-07-05T07:44:11;99669.88;;;22.74;40.82
69200;BME280;56313;49.804;9.952;2022-07-05T07:46:36;99674.81;;;22.38;40.91
69200;BME280;56313;49.804;9.952;2022-07-05T07:49:04;99669.34;;;21.74;57.63
69200;BME280;56313;49.804;9.952;2022-07-05T07:51:30;99677.16;;;21.82;57.18
69200;BME280;56313;49.804;9.952;2022-07-05T07:53:55;99669.53;;;21.86;53.94
69200;BME280;56313;49.804;9.952;2022-07-05T07:56:20;99673.41;;;22.36;41.60
69200;BME280;56313;49.804;9.952;2022-07-05T07:58:49;99662.22;;;22.52;40.27
69200;BME280;56313;49.804;9.952;2022-07-05T08:01:15;99671.22;;;22.58;52.14
69200;BME280;56313;49.804;9.952;2022-07-05T08:03:41;99681.09;;;23.09;39.95
69200;BME280;56313;49.804;9.952;2022-07-05T08:06:08;99676.91;;;23.38;38.26
69200;BME280;56313;49.804;9.952;2022-07-05T08:08:40;99678.00;;;21.76;57.62
69200;BME280;56313;49.804;9.952;2022-07-05T08:11:08;99676.72;;;22.31;42.96
69200;BME280;56313;49.804;9.952;2022-07-05T08:13:35;99676.84;;;22.75;42.02
69200;BME280;56313;49.804;9.952;2022-07-05T08:16:00;99677.56;;;22.25;42.03
69200;BME280;56313;49.804;9.952;2022-07-05T08:18:26;99676.38;;;22.14;42.83
69200;BME280;56313;49.804;9.952;2022-07-05T08:21:10;99676.09;;;22.29;41.45
69200;BME280;56313;49.804;9.952;2022-07-05T08:23:55;99678.81;;;22.55;40.61
69200;BME280;56313;49.804;9.952;2022-07-05T08:26:21;99678.06;;;22.08;54.87
69200;BME280;56313;49.804;9.952;2022-07-05T08:28:47;99677.06;;;21.43;58.99
69200;BME280;56313;49.804;9.952;2022-07-05T08:31:12;99671.94;;;22.01;45.15
69200;BME280;56313;49.804;9.952;2022-07-05T08:33:38;99675.38;;;22.47;45.99
69200;BME280;56313;49.804;9.952;2022-07-05T08:36:04;99670.13;;;22.66;49.61
69200;BME280;56313;49.804;9.952;2022-07-05T08:38:29;99673.91;;;22.58;51.08
69200;BME280;56313;49.804;9.952;2022-07-05T08:40:56;99667.38;;;22.08;49.90
69200;BME280;56313;49.804;9.952;2022-07-05T08:43:22;99669.13;;;21.89;56.99
69200;BME280;56313;49.804;9.952;2022-07-05T08:45:53;99663.31;;;21.46;58.06
69200;BME280;56313;49.804;9.952;2022-07-05T08:48:19;99668.03;;;21.44;58.47
69200;BME280;56313;49.804;9.952;2022-07-05T08:50:46;99668.69;;;21.26;60.21
69200;BME280;56313;49.804;9.952;2022-07-05T08:53:15;99663.66;;;21.63;56.22
69200;BME280;56313;49.804;9.952;2022-07-05T08:55:42;99662.06;;;22.08;53.01
69200;BME280;56313;49.804;9.952;2022-07-05T08:58:07;99664.63;;;21.89;55.22
69200;BME280;56313;49.804;9.952;2022-07-05T09:00:33;99656.44;;;22.81;41.38
69200;BME280;56313;49.804;9.952;2022-07-05T09:02:59;99654.16;;;23.29;38.57
69200;BME280;56313;49.804;9.952;2022-07-05T09:05:28;99661.16;;;23.67;36.73
69200;BME280;56313;49.804;9.952;2022-07-05T09:07:59;99665.56;;;22.09;56.43
69200;BME280;56313;49.804;9.952;2022-07-05T09:10:29;99657.19;;;23.14;44.04
69200;BME280;56313;49.804;9.952;2022-07-05T09:12:56;99659.88;;;22.31;55.61
69200;BME280;56313;49.804;9.952;2022-07-05T09:15:23;99669.88;;;23.00;39.16
69200;BME280;56313;49.804;9.952;2022-07-05T09:17:49;99667.50;;;23.10;35.77
69200;BME280;56313;49.804;9.952;2022-07-05T09:20:18;99667.66;;;23.34;35.69
69200;BME280;56313;49.804;9.952;2022-07-05T09:25:24;99668.34;;;21.88;56.05
69200;BME280;56313;49.804;9.952;2022-07-05T09:28:01;99666.72;;;22.52;43.39
69200;BME280;56313;49.804;9.952;2022-07-05T09:30:37;99671.28;;;22.77;49.97
69200;BME280;56313;49.804;9.952;2022-07-05T09:35:39;99666.16;;;23.01;47.07
69200;BME280;56313;49.804;9.952;2022-07-05T09:38:07;99673.34;;;22.75;51.28
69200;BME280;56313;49.804;9.952;2022-07-05T09:40:59;99667.78;;;22.76;52.51
69200;BME280;56313;49.804;9.952;2022-07-05T09:43:28;99666.44;;;23.56;35.85
69200;BME280;56313;49.804;9.952;2022-07-05T09:45:58;99667.13;;;24.00;34.71
69200;BME280;56313;49.804;9.952;2022-07-05T09:48:25;99674.97;;;23.64;39.54
69200;BME280;56313;49.804;9.952;2022-07-05T09:50:51;99669.03;;;22.74;41.66
69200;BME280;56313;49.804;9.952;2022-07-05T09:53:20;99675.97;;;23.26;36.70
69200;BME280;56313;49.804;9.952;2022-07-05T09:56:05;99670.75;;;23.12;49.22
69200;BME280;56313;49.804;9.952;2022-07-05T09:58:31;99663.84;;;21.75;55.87
69200;BME280;56313;49.804;9.952;2022-07-05T10:00:57;99668.44;;;22.07;48.99
69200;BME280;56313;49.804;9.952;2022-07-05T10:03:23;99660.28;;;23.36;36.38
69200;BME280;56313;49.804;9.952;2022-07-05T10:05:48;99665.34;;;22.10;55.54
69200;BME280;56313;49.804;9.952;2022-07-05T10:08:15;99664.19;;;23.34;45.60
69200;BME280;56313;49.804;9.952;2022-07-05T10:10:43;99650.66;;;23.10;49.32
69200;BME280;56313;49.804;9.952;2022-07-05T10:13:08;99657.72;;;23.79;36.66
69200;BME280;56313;49.804;9.952;2022-07-05T10:15:35;99658.31;;;24.12;33.22
69200;BME280;56313;49.804;9.952;2022-07-05T10:18:12;99661.66;;;23.76;39.12
69200;BME280;56313;49.804;9.952;2022-07-05T10:23:11;99661.28;;;23.91;33.68
69200;BME280;56313;49.804;9.952;2022-07-05T10:25:39;99653.56;;;23.27;35.90
69200;BME280;56313;49.804;9.952;2022-07-05T10:28:06;99652.75;;;23.83;34.05
69200;BME280;56313;49.804;9.952;2022-07-05T10:30:32;99652.66;;;23.89;36.33
69200;BME280;56313;49.804;9.952;2022-07-05T10:33:01;99651.19;;;23.19;47.00
69200;BME280;56313;49.804;9.952;2022-07-05T10:35:27;99659.25;;;21.96;55.55
69200;BME280;56313;49.804;9.952;2022-07-05T10:37:53;99647.66;;;22.81;43.73
69200;BME280;56313;49.804;9.952;2022-07-05T10:40:18;99650.03;;;22.31;53.69
69200;BME280;56313;49.804;9.952;2022-07-05T10:43:10;99654.19;;;22.85;49.53
69200;BME280;56313;49.804;9.952;2022-07-05T10:45:48;99651.53;;;21.74;56.10
69200;BME280;56313;49.804;9.952;2022-07-05T10:48:21;99641.88;;;22.58;52.28
69200;BME280;56313;49.804;9.952;2022-07-05T10:58:44;99644.03;;;23.12;51.38
69200;BME280;56313;49.804;9.952;2022-07-05T11:06:27;99650.66;;;21.94;55.54
69200;BME280;56313;49.804;9.952;2022-07-05T11:11:31;99635.50;;;22.59;45.21
69200;BME280;56313;49.804;9.952;2022-07-05T11:13:58;99645.22;;;22.14;55.74
69200;BME280;56313;49.804;9.952;2022-07-05T11:16:26;99636.63;;;22.38;54.65
69200;BME280;56313;49.804;9.952;2022-07-05T11:19:04;99640.41;;;22.62;53.70
69200;BME280;56313;49.804;9.952;2022-07-05T11:21:30;99645.00;;;23.18;40.79
69200;BME280;56313;49.804;9.952;2022-07-05T11:24:23;99639.31;;;23.71;44.73
69200;BME280;56313;49.804;9.952;2022-07-05T11:26:49;99635.97;;;22.75;40.22
69200;BME280;56313;49.804;9.952;2022-07-05T11:29:42;99644.81;;;24.37;33.94
69200;BME280;56313;49.804;9.952;2022-07-05T11:32:10;99638.25;;;23.34;48.44
69200;BME280;56313;49.804;9.952;2022-07-05T11:34:36;99627.22;;;23.99;39.63
69200;BME280;56313;49.804;9.952;2022-07-05T11:37:23;99609.69;;;24.82;32.51
69200;BME280;56313;49.804;9.952;2022-07-05T11:42:50;99613.47;;;23.83;36.67
69200;BME280;56313;49.804;9.952;2022-07-05T11:45:16;99621.91;;;24.65;32.70
69200;BME280;56313;49.804;9.952;2022-07-05T11:47:42;99619.75;;;23.89;42.84
69200;BME280;56313;49.804;9.952;2022-07-05T11:50:10;99619.31;;;23.92;36.74
69200;BME280;56313;49.804;9.952;2022-07-05T11:52:36;99614.75;;;24.35;44.31
69200;BME280;56313;49.804;9.952;2022-07-05T11:55:04;99611.16;;;25.37;37.71
69200;BME280;56313;49.804;9.952;2022-07-05T11:57:33;99603.75;;;24.79;31.53
69200;BME280;56313;49.804;9.952;2022-07-05T11:59:58;99604.91;;;24.84;35.75
69200;BME280;56313;49.804;9.952;2022-07-05T12:02:24;99613.00;;;23.37;48.53
69200;BME280;56313;49.804;9.952;2022-07-05T12:04:54;99609.88;;;22.96;49.58
69200;BME280;56313;49.804;9.952;2022-07-05T12:07:27;99604.94;;;23.56;35.51
69200;BME280;56313;49.804;9.952;2022-07-05T12:09:52;99605.38;;;24.02;33.90
69200;BME280;56313;49.804;9.952;2022-07-05T12:12:36;99600.78;;;23.03;50.38
69200;BME280;56313;49.804;9.952;2022-07-05T12:15:16;99607.25;;;23.14;45.64
69200;BME280;56313;49.804;9.952;2022-07-05T12:17:43;99604.66;;;23.26;49.50
69200;BME280;56313;49.804;9.952;2022-07-05T12:20:11;99595.25;;;24.47;34.39
69200;BME280;56313;49.804;9.952;2022-07-05T12:22:39;99594.47;;;24.94;34.32
69200;BME280;56313;49.804;9.952;2022-07-05T12:25:10;99599.75;;;22.60;48.49
69200;BME280;56313;49.804;9.952;2022-07-05T12:27:41;99604.34;;;22.21;54.83
69200;BME280;56313;49.804;9.952;2022-07-05T12:30:08;99582.78;;;21.90;56.13
69200;BME280;56313;49.804;9.952;2022-07-05T12:32:53;99583.50;;;22.11;55.13
69200;BME280;56313;49.804;9.952;2022-07-05T12:35:39;99596.28;;;24.03;45.06
69200;BME280;56313;49.804;9.952;2022-07-05T12:40:41;99590.34;;;23.70;43.23
69200;BME280;56313;49.804;9.952;2022-07-05T12:43:09;99589.66;;;23.07;46.71
69200;BME280;56313;49.804;9.952;2022-07-05T12:46:04;99588.13;;;23.36;50.01
69200;BME280;56313;49.804;9.952;2022-07-05T12:48:34;99576.34;;;22.62;52.55
69200;BME280;56313;49.804;9.952;2022-07-05T12:51:00;99587.84;;;23.75;47.49
69200;BME280;56313;49.804;9.952;2022-07-05T12:53:27;99578.22;;;22.81;48.84
69200;BME280;56313;49.804;9.952;2022-07-05T12:56:13;99569.03;;;24.73;40.61
69200;BME280;56313;49.804;9.952;2022-07-05T12:58:59;99566.56;;;25.19;38.90
69200;BME280;56313;49.804;9.952;2022-07-05T13:01:37;99573.84;;;24.04;45.13
69200;BME280;56313;49.804;9.952;2022-07-05T13:04:15;99579.13;;;23.31;47.54
69200;BME280;56313;49.804;9.952;2022-07-05T13:06:58;99566.28;;;22.83;51.55
69200;BME280;56313;49.804;9.952;2022-07-05T13:09:32;99578.25;;;21.90;56.75
69200;BME280;56313;49.804;9.952;2022-07-05T13:12:16;99575.50;;;22.04;56.34
69200;BME280;56313;49.804;9.952;2022-07-05T13:14:46;99573.97;;;23.66;47.18
69200;BME280;56313;49.804;9.952;2022-07-05T13:17:13;99586.22;;;22.81;53.56
69200;BME280;56313;49.804;9.952;2022-07-05T13:19:40;99577.75;;;24.44;46.02
69200;BME280;56313;49.804;9.952;2022-07-05T13:22:05;99585.22;;;25.55;29.58
69200;BME280;56313;49.804;9.952;2022-07-05T13:24:31;99583.94;;;24.33;33.90
69200;BME280;56313;49.804;9.952;2022-07-05T13:26:57;99575.72;;;24.03;46.04
69200;BME280;56313;49.804;9.952;2022-07-05T13:29:23;99585.13;;;23.07;40.81
69200;BME280;56313;49.804;9.952;2022-07-05T13:31:48;99573.75;;;23.49;34.68
69200;BME280;56313;49.804;9.952;2022-07-05T13:34:14;99569.19;;;24.54;35.79
69200;BME280;56313;49.804;9.952;2022-07-05T13:36:42;99580.56;;;23.64;35.83